Winfield, Texas
Current Conditions -  °F | °C
As of 12:55 PM on Friday 24 Oct 2014 (Local Time) from KOSA Reporting Station
Clear Clear  
Wind Chill: 23°   Ceiling: Unl
Heat Index: 23°   Visibility: 10mi
Dew Point: 12°   Wind: 0mph
Humidity: 48%   Direction: NA
Pressure: 30.18"   Gusts: NA
Location:  33.17°N, 95.11°W
Report Text: KOSA 241755Z AUTO 00000KT 10SM CLR 23/12 A3018 RMK AO1 T02310115 10231 20116
Loading
Personal Weather Stations






























Interactive Weather Map
Tropical Storm Tracking
New forecast layout! Learn more

10-Day Weather Forecast

Advertisements
Track Severe Weather on mobile